Time;durP1;ratioP1;P1;durP2;ratioP2;P2;SDS_P1;SDS_P2;PMS_P1;PMS_P2;Temp;Humidity;BMP_temperature;BMP_pressure;BME280_temperature;BME280_humidity;BME280_pressure;Samples;Min_cycle;Max_cycle;Signal;HPM_P1;HPM_P2
2022/11/13 00:00:26;;;;;;;11.32;6.60;;;;;;;5.83;78.92;100071.50;5010579;28;20060;-84
2022/11/13 00:02:51;;;;;;;5.95;5.18;;;;;;;6.14;78.00;100078.38;5009667;28;20013;-84
2022/11/13 00:05:17;;;;;;;8.00;6.30;;;;;;;6.15;77.85;100074.69;4997594;28;20036;-83
2022/11/13 00:07:42;;;;;;;10.68;6.78;;;;;;;6.46;76.27;100091.94;5008215;28;20188;-84
2022/11/13 00:10:08;;;;;;;6.75;5.85;;;;;;;6.29;76.24;100095.81;5009644;28;20044;-84
2022/11/13 00:12:33;;;;;;;9.13;6.63;;;;;;;4.96;80.35;100088.34;5021187;28;20041;-84
2022/11/13 00:14:59;;;;;;;8.23;5.72;;;;;;;4.36;82.42;100069.09;5017487;28;20482;-84
2022/11/13 00:17:24;;;;;;;6.65;5.53;;;;;;;5.20;80.45;100074.81;4989407;28;20038;-84
2022/11/13 00:19:50;;;;;;;6.47;5.22;;;;;;;5.98;79.20;100098.78;4991821;28;20225;-84
2022/11/13 00:22:15;;;;;;;6.75;5.28;;;;;;;6.21;77.13;100072.13;5025163;28;20128;-84
2022/11/13 00:24:40;;;;;;;7.72;5.70;;;;;;;6.05;77.25;100091.72;5011492;28;20056;-84
2022/11/13 00:27:06;;;;;;;8.32;5.63;;;;;;;5.74;78.50;100064.69;5019498;28;20083;-84
2022/11/13 00:29:31;;;;;;;5.43;4.85;;;;;;;6.30;77.27;100086.88;4992203;28;20041;-83
2022/11/13 00:31:56;;;;;;;7.43;5.63;;;;;;;5.86;76.26;100044.66;5007304;28;20037;-84
2022/11/13 00:34:22;;;;;;;7.70;5.57;;;;;;;5.95;78.44;100085.09;5013784;28;20072;-85
2022/11/13 00:36:47;;;;;;;6.90;5.35;;;;;;;6.16;76.85;100090.41;5023739;28;20432;-85
2022/11/13 00:39:13;;;;;;;6.28;5.35;;;;;;;6.01;76.86;100040.13;5025560;28;20037;-84
2022/11/13 00:41:38;;;;;;;7.18;5.53;;;;;;;5.73;78.88;100083.41;4985373;28;20026;-84
2022/11/13 00:44:04;;;;;;;8.45;5.88;;;;;;;6.25;76.93;100088.44;5000651;28;20252;-83
2022/11/13 00:46:29;;;;;;;6.47;5.03;;;;;;;6.24;77.01;100060.31;5010940;28;20587;-84
2022/11/13 00:48:55;;;;;;;8.55;5.78;;;;;;;5.68;77.60;100054.81;4995716;28;20041;-84
2022/11/13 00:51:20;;;;;;;5.75;5.15;;;;;;;5.67;78.79;100077.03;5005514;28;20440;-84
2022/11/13 00:53:46;;;;;;;7.82;5.72;;;;;;;6.24;77.04;100087.66;5007115;28;20117;-84
2022/11/13 00:56:12;;;;;;;13.07;7.60;;;;;;;5.13;78.04;100084.50;5026181;28;20056;-84
2022/11/13 00:58:37;;;;;;;8.32;5.95;;;;;;;5.54;79.35;100071.59;5008800;28;20029;-84
2022/11/13 01:01:09;;;;;;;8.32;5.65;;;;;;;5.97;77.58;100073.31;5001732;28;20072;-84
2022/11/13 01:03:35;;;;;;;5.38;4.35;;;;;;;6.16;76.75;100068.41;5006856;28;20041;-84
2022/11/13 01:06:00;;;;;;;6.90;4.68;;;;;;;6.05;76.75;100065.22;5027408;28;20496;-84
2022/11/13 01:08:26;;;;;;;7.97;5.15;;;;;;;6.02;76.16;100072.75;5009358;28;20040;-84
2022/11/13 01:10:51;;;;;;;9.23;6.35;;;;;;;5.91;76.84;100058.19;5007907;28;20409;-84
2022/11/13 01:13:16;;;;;;;7.68;5.70;;;;;;;5.76;76.55;100064.50;5022459;28;20021;-84
2022/11/13 01:15:43;;;;;;;6.30;5.60;;;;;;;6.09;75.99;100063.03;4981443;28;20041;-84
2022/11/13 01:18:10;;;;;;;6.60;5.38;;;;;;;5.76;76.30;100025.59;5022947;28;20037;-84
2022/11/13 01:20:36;;;;;;;7.88;6.20;;;;;;;6.10;76.13;100058.53;5028307;28;20037;-84
2022/11/13 01:23:02;;;;;;;6.60;5.88;;;;;;;5.93;76.01;100013.75;5003288;28;20022;-84
2022/11/13 01:25:29;;;;;;;9.30;5.90;;;;;;;6.07;75.74;100059.75;5003230;28;20037;-84
2022/11/13 01:27:54;;;;;;;8.35;6.63;;;;;;;6.12;76.51;100064.47;5021797;28;20035;-84
2022/11/13 01:30:21;;;;;;;8.88;5.97;;;;;;;5.89;76.01;100040.81;5007905;28;20037;-84
2022/11/13 01:32:46;;;;;;;9.70;6.07;;;;;;;6.03;75.76;100058.47;5009462;28;20521;-84
2022/11/13 01:35:12;;;;;;;8.48;5.63;;;;;;;6.00;76.40;100074.78;5005929;28;20121;-84
2022/11/13 01:37:37;;;;;;;7.88;6.47;;;;;;;5.78;75.98;100033.34;5002970;28;20040;-85
2022/11/13 01:40:03;;;;;;;9.45;6.45;;;;;;;5.85;76.25;100047.50;4990337;28;20504;-84
2022/11/13 01:42:32;;;;;;;7.18;6.18;;;;;;;5.83;76.49;100049.50;5007905;28;20025;-85
2022/11/13 01:44:59;;;;;;;10.32;7.05;;;;;;;5.97;76.50;100049.47;4980769;28;20509;-84
2022/11/13 01:47:25;;;;;;;8.45;5.65;;;;;;;6.10;75.34;100034.69;5024269;28;20036;-84
2022/11/13 01:49:55;;;;;;;7.07;5.47;;;;;;;5.84;76.36;100033.44;5006341;28;20050;-84
2022/11/13 01:52:35;;;;;;;10.13;6.50;;;;;;;5.99;75.92;100036.84;5029918;28;20517;-84
2022/11/13 01:55:09;;;;;;;7.65;6.22;;;;;;;5.70;76.37;100015.72;5006790;28;20076;-84
2022/11/13 01:57:35;;;;;;;7.00;6.30;;;;;;;5.71;76.65;100030.63;5023414;28;20029;-84
2022/11/13 02:00:08;;;;;;;12.38;6.80;;;;;;;5.85;75.74;100029.78;5007425;28;20396;-84
2022/11/13 02:02:33;;;;;;;12.27;7.32;;;;;;;5.82;75.95;100029.31;4989673;28;20067;-84
2022/11/13 02:04:59;;;;;;;10.88;8.20;;;;;;;5.81;75.69;100017.88;4986422;28;20057;-84
2022/11/13 02:07:25;;;;;;;9.13;7.38;;;;;;;5.86;75.96;100020.81;5022228;28;20030;-84
2022/11/13 02:09:56;;;;;;;9.45;7.75;;;;;;;5.84;75.44;100003.47;5007854;28;20516;-84
2022/11/13 02:12:33;;;;;;;11.55;7.60;;;;;;;5.65;76.03;100002.25;5025991;28;20033;-84
2022/11/13 02:15:01;;;;;;;9.13;7.43;;;;;;;5.56;76.03;99997.25;5025943;28;20110;-83
2022/11/13 02:17:32;;;;;;;9.63;6.93;;;;;;;5.61;75.29;99969.22;5020886;28;26368;-84
2022/11/13 02:20:04;;;;;;;9.48;6.90;;;;;;;5.72;75.76;100003.13;5007774;28;20025;-83
2022/11/13 02:23:06;;;;;;;9.30;7.05;;;;;;;5.69;75.60;100007.97;5024007;28;20017;-84
2022/11/13 02:25:33;;;;;;;7.55;6.40;;;;;;;5.92;74.80;99988.25;5002512;28;20033;-84
2022/11/13 02:27:59;;;;;;;6.20;5.63;;;;;;;5.71;74.86;99980.31;5009192;28;20108;-84
2022/11/13 02:30:30;;;;;;;9.48;7.18;;;;;;;4.83;77.05;100010.59;5006778;28;20456;-84
2022/11/13 02:32:57;;;;;;;7.05;6.00;;;;;;;5.49;76.58;100005.13;5023685;28;20076;-84
2022/11/13 02:35:32;;;;;;;9.23;7.38;;;;;;;5.25;75.87;99994.88;5001316;28;20048;-84
2022/11/13 02:38:00;;;;;;;6.45;5.65;;;;;;;5.59;76.30;99991.59;5018740;28;20080;-83
2022/11/13 02:40:26;;;;;;;6.82;6.00;;;;;;;5.68;75.62;100004.50;5005958;28;20041;-85
2022/11/13 02:42:51;;;;;;;8.07;5.95;;;;;;;5.79;74.88;99998.72;5024171;28;20396;-84
2022/11/13 02:45:18;;;;;;;8.40;6.25;;;;;;;5.64;74.79;99989.19;5025870;28;20045;-83
2022/11/13 02:47:43;;;;;;;7.00;6.25;;;;;;;5.42;75.50;99977.75;5024544;28;20029;-84
2022/11/13 02:50:10;;;;;;;6.80;6.00;;;;;;;4.94;76.10;99981.06;4989844;28;20040;-84
2022/11/13 02:52:35;;;;;;;7.85;6.47;;;;;;;5.09;77.15;99979.19;4987228;28;20500;-84
2022/11/13 02:55:01;;;;;;;6.25;5.32;;;;;;;5.40;76.00;99987.72;5027516;28;20056;-84
2022/11/13 02:57:26;;;;;;;7.50;5.90;;;;;;;5.57;75.24;99994.41;5010118;28;20148;-84
2022/11/13 02:59:52;;;;;;;9.63;5.80;;;;;;;5.31;76.01;99971.13;5007759;28;20385;-84
2022/11/13 03:02:17;;;;;;;7.95;6.47;;;;;;;5.27;75.07;99963.75;5027192;28;20037;-84
2022/11/13 03:04:43;;;;;;;13.73;7.72;;;;;;;5.04;75.91;99960.44;4992459;28;20037;-84
2022/11/13 03:07:09;;;;;;;13.30;7.47;;;;;;;5.12;75.55;99955.03;5011128;28;20112;-84
2022/11/13 03:09:34;;;;;;;11.57;7.30;;;;;;;5.39;76.08;99991.38;5026472;28;20504;-84
2022/11/13 03:12:00;;;;;;;13.57;9.15;;;;;;;4.63;75.44;99967.22;4996507;28;20160;-85
2022/11/13 03:14:25;;;;;;;19.38;11.73;;;;;;;4.82;76.86;99990.47;5028951;28;20143;-83
2022/11/13 03:16:50;;;;;;;11.88;9.30;;;;;;;4.96;77.68;99976.41;5026975;28;20021;-84
2022/11/13 03:19:16;;;;;;;37.20;21.10;;;;;;;4.84;75.22;99977.88;4995046;28;20117;-84
2022/11/13 03:21:41;;;;;;;35.58;17.08;;;;;;;4.52;76.30;99961.38;5025115;28;20381;-84
2022/11/13 03:24:07;;;;;;;12.77;8.60;;;;;;;4.95;76.42;99982.72;4991634;28;20065;-84
2022/11/13 03:26:32;;;;;;;15.55;9.00;;;;;;;5.06;76.66;99977.78;5011219;28;20060;-83
2022/11/13 03:28:58;;;;;;;14.50;8.57;;;;;;;5.51;75.03;99968.69;5026464;28;20444;-84
2022/11/13 03:31:23;;;;;;;15.75;9.00;;;;;;;5.13;75.09;99951.38;5020858;28;20029;-84
2022/11/13 03:33:51;;;;;;;12.80;7.63;;;;;;;5.55;74.30;99963.84;5027073;28;20035;-84
2022/11/13 03:36:16;;;;;;;10.80;7.53;;;;;;;5.43;74.37;99974.13;4989865;28;20034;-84
2022/11/13 03:38:42;;;;;;;12.38;6.72;;;;;;;5.43;74.41;99981.22;5006915;28;20102;-84
2022/11/13 03:41:07;;;;;;;10.43;6.85;;;;;;;5.46;73.84;99968.44;5030503;28;20033;-84
2022/11/13 03:43:33;;;;;;;9.50;6.50;;;;;;;5.36;74.64;99949.38;5014540;28;20047;-84
2022/11/13 03:45:58;;;;;;;9.68;6.55;;;;;;;5.17;74.22;99916.44;5025307;28;20029;-84
2022/11/13 03:48:23;;;;;;;7.93;5.88;;;;;;;5.32;73.71;99937.53;5007302;28;20037;-84
2022/11/13 03:50:52;;;;;;;9.85;6.25;;;;;;;4.63;76.26;99973.31;5009244;28;20080;-84
2022/11/13 03:53:17;;;;;;;11.18;5.90;;;;;;;5.14;75.17;99932.66;5028755;28;20565;-84
2022/11/13 03:55:44;;;;;;;7.20;5.63;;;;;;;5.08;75.73;99961.69;5003740;28;20029;-86
2022/11/13 03:58:09;;;;;;;9.90;5.70;;;;;;;5.37;74.62;99971.41;5011885;28;20475;-84
2022/11/13 04:00:36;;;;;;;9.68;6.40;;;;;;;5.20;74.53;99955.72;5028410;28;20108;-84
2022/11/13 04:03:02;;;;;;;7.97;5.93;;;;;;;5.00;74.48;99938.81;5026694;28;20105;-84
2022/11/13 04:05:27;;;;;;;5.93;5.18;;;;;;;5.23;74.33;99950.09;5008256;28;20116;-84
2022/11/13 04:07:53;;;;;;;7.43;6.18;;;;;;;5.23;74.46;99965.13;5009095;28;20038;-84
2022/11/13 04:10:18;;;;;;;10.63;6.05;;;;;;;5.28;74.11;99953.00;5027252;28;20116;-84
2022/11/13 04:12:44;;;;;;;10.00;6.18;;;;;;;5.12;73.77;99933.84;5013193;28;20550;-84
2022/11/13 04:15:10;;;;;;;8.80;5.97;;;;;;;5.30;73.64;99943.03;5024404;28;20026;-84
2022/11/13 04:17:35;;;;;;;6.55;5.22;;;;;;;4.44;74.59;99921.84;5027488;28;20329;-84
2022/11/13 04:20:01;;;;;;;8.65;5.60;;;;;;;4.93;74.85;99942.41;5007958;28;20030;-84
2022/11/13 04:22:26;;;;;;;6.38;5.05;;;;;;;5.07;74.80;99936.25;5012893;28;20116;-84
2022/11/13 04:24:51;;;;;;;6.47;4.85;;;;;;;4.98;74.34;99946.09;5008414;28;20440;-84
2022/11/13 04:27:17;;;;;;;10.48;6.15;;;;;;;3.45;78.05;99938.97;5026036;28;20037;-84
2022/11/13 04:29:42;;;;;;;8.98;5.78;;;;;;;4.74;75.99;99940.34;5028304;28;20124;-84
2022/11/13 04:32:08;;;;;;;10.75;5.82;;;;;;;4.65;74.83;99936.16;5005843;28;20031;-84
2022/11/13 04:34:34;;;;;;;6.40;4.85;;;;;;;4.84;74.58;99925.81;5023142;28;20060;-84
2022/11/13 04:36:59;;;;;;;7.60;5.35;;;;;;;5.02;74.24;99936.00;5009589;28;20025;-84
2022/11/13 04:39:25;;;;;;;7.20;5.15;;;;;;;5.14;73.97;99927.38;5023595;28;20041;-84
2022/11/13 04:44:34;;;;;;;11.15;6.53;;;;;;;3.06;78.85;99925.84;4995468;28;20507;-86
2022/11/13 04:46:59;;;;;;;6.50;4.88;;;;;;;4.44;76.58;99913.91;5003093;28;20037;-84
2022/11/13 04:49:25;;;;;;;11.35;5.28;;;;;;;4.95;74.74;99916.56;5008080;28;20142;-84
2022/11/13 04:51:50;;;;;;;10.73;6.03;;;;;;;4.74;73.73;99912.03;5005876;28;20071;-84
2022/11/13 04:54:16;;;;;;;7.07;5.47;;;;;;;4.53;75.61;99901.41;4977133;28;20030;-85
2022/11/13 04:56:41;;;;;;;6.95;5.13;;;;;;;4.66;74.21;99891.00;5024401;28;20250;-84
2022/11/13 04:59:07;;;;;;;7.13;4.70;;;;;;;4.93;74.05;99927.34;4975297;28;20057;-84
2022/11/13 05:01:34;;;;;;;6.82;5.30;;;;;;;5.05;73.21;99917.09;5020995;28;20057;-84
2022/11/13 05:03:59;;;;;;;6.25;5.07;;;;;;;4.90;73.83;99898.63;5013691;28;20432;-84
2022/11/13 05:06:24;;;;;;;7.70;5.15;;;;;;;5.04;72.87;99910.16;4989135;28;20052;-86
2022/11/13 05:08:50;;;;;;;8.35;4.63;;;;;;;4.87;73.32;99880.47;5005458;28;20038;-84
2022/11/13 05:11:15;;;;;;;6.78;4.75;;;;;;;4.97;73.14;99891.56;5004922;28;20061;-84
2022/11/13 05:13:41;;;;;;;6.40;4.68;;;;;;;4.99;73.57;99904.59;5008075;28;20029;-85
2022/11/13 05:16:09;;;;;;;6.32;4.20;;;;;;;5.10;72.65;99907.59;5006346;28;20055;-84
2022/11/13 05:18:36;;;;;;;8.93;5.43;;;;;;;5.13;72.71;99907.19;5006265;28;20044;-86
2022/11/13 05:21:03;;;;;;;6.43;4.60;;;;;;;4.91;72.49;99880.91;5024855;28;20094;-86
2022/11/13 05:23:29;;;;;;;5.07;4.57;;;;;;;5.00;72.88;99885.09;5012854;28;20163;-86
2022/11/13 05:26:13;;;;;;;6.03;5.00;;;;;;;4.81;73.08;99899.72;5024463;28;20550;-85
2022/11/13 05:28:38;;;;;;;6.10;4.95;;;;;;;4.92;73.09;99903.72;5024297;28;20075;-84
2022/11/13 05:31:06;;;;;;;5.82;5.10;;;;;;;4.83;73.58;99904.81;5005867;28;20393;-84
2022/11/13 05:33:32;;;;;;;5.72;4.70;;;;;;;4.70;73.83;99863.19;5007833;28;20041;-84
2022/11/13 05:36:03;;;;;;;6.80;5.00;;;;;;;4.84;73.22;99885.31;5022987;28;20117;-84
2022/11/13 05:38:29;;;;;;;7.00;5.22;;;;;;;4.81;72.97;99891.78;5006526;28;20032;-84
2022/11/13 05:41:02;;;;;;;6.25;5.25;;;;;;;4.61;73.76;99851.06;5026277;28;20036;-84
2022/11/13 05:43:28;;;;;;;6.63;4.65;;;;;;;4.74;73.80;99872.38;5026279;28;20060;-84
2022/11/13 05:46:09;;;;;;;6.78;4.95;;;;;;;4.92;73.49;99872.78;4989973;28;20443;-84
2022/11/13 05:48:35;;;;;;;6.43;4.47;;;;;;;4.48;74.80;99859.66;5005818;28;20037;-87
2022/11/13 05:51:19;;;;;;;10.38;5.30;;;;;;;4.33;75.20;99879.19;5009087;28;20029;-83
2022/11/13 05:53:45;;;;;;;6.85;4.63;;;;;;;4.64;73.81;99869.22;5022611;28;20580;-84
2022/11/13 05:56:32;;;;;;;9.55;6.22;;;;;;;4.34;74.15;99871.09;5020797;28;20111;-83
2022/11/13 05:58:59;;;;;;;8.55;4.53;;;;;;;4.63;74.07;99872.84;5003698;28;20026;-83
2022/11/13 06:01:27;;;;;;;12.68;7.85;;;;;;;4.70;73.38;99879.03;5006976;28;20397;-85
2022/11/13 06:03:55;;;;;;;11.57;6.80;;;;;;;4.19;73.76;99793.66;5024741;28;20405;-86
2022/11/13 06:06:22;;;;;;;15.88;8.40;;;;;;;4.16;73.98;99846.84;5020699;28;20359;-85
2022/11/13 06:08:48;;;;;;;12.60;7.63;;;;;;;3.81;75.87;99839.63;5025660;28;20025;-85
2022/11/13 06:11:17;;;;;;;12.27;6.45;;;;;;;4.47;74.15;99863.31;4987313;28;20068;-85
2022/11/13 06:13:43;;;;;;;8.88;5.47;;;;;;;4.51;73.75;99847.91;5024140;28;20030;-85
2022/11/13 06:16:12;;;;;;;8.63;5.75;;;;;;;4.71;73.56;99864.84;5019954;28;20034;-85
2022/11/13 06:18:39;;;;;;;13.65;5.45;;;;;;;4.90;73.41;99866.03;5004208;28;20025;-85
2022/11/13 06:21:09;;;;;;;5.70;5.00;;;;;;;4.65;73.40;99860.28;5005932;28;20037;-85
2022/11/13 06:23:36;;;;;;;8.48;5.47;;;;;;;4.61;73.29;99826.47;5022753;28;20571;-85
2022/11/13 06:26:04;;;;;;;10.27;6.00;;;;;;;4.71;73.05;99848.13;4985379;28;20187;-86
2022/11/13 06:28:31;;;;;;;5.90;4.68;;;;;;;4.68;73.75;99836.09;5026695;28;20123;-85
2022/11/13 06:31:21;;;;;;;7.00;4.70;;;;;;;4.47;73.97;99813.09;5022082;28;20111;-85
2022/11/13 06:33:46;;;;;;;7.47;4.90;;;;;;;4.31;74.43;99828.34;5030789;28;20041;-85
2022/11/13 06:36:18;;;;;;;5.97;4.93;;;;;;;4.63;73.10;99821.81;4991746;28;20036;-85
2022/11/13 06:38:43;;;;;;;10.45;5.03;;;;;;;4.74;73.31;99829.28;5026404;28;20079;-85
2022/11/13 06:41:11;;;;;;;6.95;5.03;;;;;;;4.86;72.61;99844.44;5007990;28;20485;-85
2022/11/13 06:43:37;;;;;;;7.10;4.82;;;;;;;4.66;72.55;99809.03;5009259;28;20034;-85
2022/11/13 06:46:04;;;;;;;6.68;5.10;;;;;;;4.23;74.49;99837.19;5015152;28;20363;-85
2022/11/13 06:48:30;;;;;;;9.23;5.88;;;;;;;4.68;73.42;99837.91;5007064;28;20025;-85
2022/11/13 06:51:01;;;;;;;9.65;4.70;;;;;;;4.52;74.35;99846.91;5007773;28;20436;-85
2022/11/13 06:53:26;;;;;;;6.78;5.18;;;;;;;4.96;73.14;99837.03;5021379;28;20079;-85
2022/11/13 06:55:51;;;;;;;6.03;4.43;;;;;;;4.84;72.60;99817.38;5027399;28;20422;-85
2022/11/13 06:58:17;;;;;;;7.32;4.85;;;;;;;4.79;72.60;99845.38;4988078;28;20037;-86
2022/11/13 07:00:43;;;;;;;6.15;4.68;;;;;;;4.85;72.53;99834.06;5025600;28;20796;-85
2022/11/13 07:03:16;;;;;;;7.22;5.28;;;;;;;4.95;72.81;99832.75;5007577;28;20040;-85
2022/11/13 07:05:41;;;;;;;6.15;5.50;;;;;;;3.43;75.64;99819.56;5006752;28;20033;-85
2022/11/13 07:08:06;;;;;;;6.35;4.72;;;;;;;4.48;74.17;99833.22;5003690;28;20026;-85
2022/11/13 07:10:32;;;;;;;6.63;5.20;;;;;;;4.74;73.61;99837.19;4988804;28;20052;-85
2022/11/13 07:12:59;;;;;;;5.90;4.97;;;;;;;4.71;73.60;99822.53;5007498;28;20053;-85
2022/11/13 07:15:24;;;;;;;6.35;4.93;;;;;;;4.71;72.46;99806.66;4986130;28;20600;-86
2022/11/13 07:17:50;;;;;;;5.53;4.63;;;;;;;5.04;72.43;99818.41;5029097;28;21202;-85
2022/11/13 07:20:15;;;;;;;7.22;4.07;;;;;;;4.84;72.74;99806.78;5006751;28;20033;-85
2022/11/13 07:22:40;;;;;;;7.53;5.40;;;;;;;4.54;73.97;99837.78;5027885;28;20034;-85
2022/11/13 07:25:06;;;;;;;6.80;4.63;;;;;;;4.81;73.59;99832.78;5005682;28;20037;-85
2022/11/13 07:27:32;;;;;;;8.95;6.97;;;;;;;3.98;75.36;99827.06;5023948;28;20037;-85
2022/11/13 07:29:57;;;;;;;6.47;4.80;;;;;;;4.45;74.88;99846.84;5012199;28;20033;-85
2022/11/13 07:32:23;;;;;;;6.50;5.05;;;;;;;4.82;73.13;99835.25;5026342;28;20113;-85
2022/11/13 07:34:49;;;;;;;7.65;5.03;;;;;;;4.83;73.14;99841.34;4977037;28;20037;-85
2022/11/13 07:37:14;;;;;;;12.57;8.85;;;;;;;3.38;78.79;99843.84;5008535;28;20374;-85
2022/11/13 07:39:40;;;;;;;7.43;5.80;;;;;;;2.86;80.92;99824.47;5007830;28;20065;-85
2022/11/13 07:42:05;;;;;;;8.13;5.60;;;;;;;3.74;77.79;99809.66;4987765;28;20425;-86
2022/11/13 07:44:30;;;;;;;11.45;5.82;;;;;;;4.33;76.22;99836.91;5008489;28;20061;-86
2022/11/13 07:46:56;;;;;;;8.70;5.47;;;;;;;4.72;74.37;99834.72;5026402;28;20075;-86
2022/11/13 07:49:21;;;;;;;10.73;7.13;;;;;;;4.35;75.01;99805.81;5013423;28;20037;-85
2022/11/13 07:51:47;;;;;;;10.93;8.52;;;;;;;3.35;79.56;99806.44;5020402;28;20547;-85
2022/11/13 07:54:12;;;;;;;14.45;9.63;;;;;;;2.81;83.30;99834.72;5010257;28;20721;-86
2022/11/13 07:56:37;;;;;;;13.95;9.25;;;;;;;2.73;84.04;99818.97;5029179;28;20061;-85
2022/11/13 07:59:03;;;;;;;14.35;9.55;;;;;;;2.38;84.98;99779.97;5027775;28;20034;-85
2022/11/13 08:01:28;;;;;;;29.67;15.32;;;;;;;2.47;86.08;99819.25;5005231;28;20408;-85
2022/11/13 08:03:53;;;;;;;22.67;13.93;;;;;;;2.37;86.36;99802.03;4980232;28;20033;-85
2022/11/13 08:06:19;;;;;;;20.30;11.77;;;;;;;2.76;85.84;99822.06;4967530;28;20048;-85
2022/11/13 08:08:47;;;;;;;15.50;11.00;;;;;;;3.09;83.89;99825.28;5011794;28;21390;-85
2022/11/13 08:11:13;;;;;;;14.32;10.73;;;;;;;3.56;80.70;99820.56;4973755;28;20037;-85
2022/11/13 08:13:38;;;;;;;9.93;7.10;;;;;;;4.15;78.61;99839.13;4999792;28;20390;-85
2022/11/13 08:16:04;;;;;;;9.73;6.82;;;;;;;4.48;76.43;99835.03;4980477;28;20033;-86
2022/11/13 08:18:30;;;;;;;11.65;7.80;;;;;;;3.88;80.45;99845.03;4982221;28;20037;-85
2022/11/13 08:20:56;;;;;;;10.10;7.25;;;;;;;4.38;76.39;99790.44;5009727;28;20045;-85
2022/11/13 08:23:22;;;;;;;9.73;7.43;;;;;;;4.94;75.43;99825.81;4989334;28;20029;-85
2022/11/13 08:25:47;;;;;;;13.27;9.45;;;;;;;3.87;79.41;99799.31;4996477;28;20066;-86
2022/11/13 08:28:13;;;;;;;15.32;10.10;;;;;;;3.76;81.37;99832.25;4983763;28;20037;-85
2022/11/13 08:30:41;;;;;;;15.90;10.68;;;;;;;3.30;84.97;99824.63;5014588;28;20032;-85
2022/11/13 08:33:06;;;;;;;17.98;13.95;;;;;;;2.50;88.56;99754.84;4992211;28;20057;-85
2022/11/13 08:35:32;;;;;;;21.80;14.93;;;;;;;1.96;89.94;99714.53;4976854;28;20525;-85
2022/11/13 08:38:02;;;;;;;18.73;14.73;;;;;;;2.20;91.35;99759.16;5001839;28;21434;-85
2022/11/13 08:40:27;;;;;;;19.77;15.13;;;;;;;2.63;92.27;99821.81;4994313;28;20079;-85
2022/11/13 08:42:58;;;;;;;22.67;15.23;;;;;;;2.71;92.10;99828.84;4968877;28;20025;-86
2022/11/13 08:45:24;;;;;;;20.40;13.32;;;;;;;2.56;92.28;99820.84;5012465;28;20120;-84
2022/11/13 08:47:49;;;;;;;22.42;13.07;;;;;;;2.73;92.06;99808.41;4990933;28;20033;-85
2022/11/13 08:50:15;;;;;;;18.85;13.13;;;;;;;3.11;90.90;99820.66;4968800;28;20036;-85
2022/11/13 08:52:40;;;;;;;16.60;9.68;;;;;;;3.41;89.42;99821.53;4982883;28;20486;-85
2022/11/13 08:55:06;;;;;;;18.52;12.23;;;;;;;3.24;89.17;99804.22;5013600;28;20095;-85
2022/11/13 08:57:31;;;;;;;18.27;12.32;;;;;;;3.10;90.36;99807.66;5012885;28;20037;-85
2022/11/13 08:59:57;;;;;;;12.77;10.20;;;;;;;3.18;89.40;99795.22;5010087;28;20090;-84
2022/11/13 09:02:22;;;;;;;17.05;12.85;;;;;;;3.29;89.38;99800.06;5000964;28;20029;-86
2022/11/13 09:04:47;;;;;;;16.73;12.32;;;;;;;3.42;90.15;99817.91;4979153;28;20037;-85
2022/11/13 09:07:13;;;;;;;23.27;13.07;;;;;;;2.82;90.89;99725.63;4992621;28;20042;-84
2022/11/13 09:09:38;;;;;;;18.35;13.43;;;;;;;3.33;91.72;99819.81;5010351;28;20115;-85
2022/11/13 09:12:04;;;;;;;20.75;13.68;;;;;;;3.31;92.28;99816.53;5012030;28;20120;-85
2022/11/13 09:14:29;;;;;;;19.70;13.73;;;;;;;3.18;92.29;99816.31;5012535;28;20113;-84
2022/11/13 09:16:55;;;;;;;18.65;12.20;;;;;;;3.19;92.92;99799.47;4996507;28;20164;-84
2022/11/13 09:19:20;;;;;;;14.98;10.88;;;;;;;3.39;93.17;99810.34;4994280;28;20033;-85
2022/11/13 09:21:46;;;;;;;17.83;11.93;;;;;;;3.43;93.30;99799.25;5010474;28;20038;-85
2022/11/13 09:24:11;;;;;;;17.40;11.73;;;;;;;3.47;93.50;99799.75;5006514;28;20655;-84
2022/11/13 09:26:37;;;;;;;14.85;10.93;;;;;;;3.56;91.59;99770.44;5011526;28;20037;-85
2022/11/13 09:29:02;;;;;;;14.18;11.80;;;;;;;3.68;91.22;99773.44;5006761;28;20047;-86
2022/11/13 09:31:28;;;;;;;17.80;12.60;;;;;;;3.78;90.36;99784.53;5005630;28;20025;-86
2022/11/13 09:33:53;;;;;;;11.55;8.85;;;;;;;4.14;84.97;99766.13;4986588;28;20044;-85
2022/11/13 09:36:19;;;;;;;11.77;9.73;;;;;;;4.86;80.73;99799.50;4978995;28;20041;-85
2022/11/13 09:38:44;;;;;;;18.15;11.95;;;;;;;5.06;80.37;99789.09;5008496;28;21546;-85
2022/11/13 09:41:30;;;;;;;18.30;11.85;;;;;;;4.81;82.52;99774.59;4993160;28;21439;-85
2022/11/13 09:44:01;;;;;;;11.52;9.18;;;;;;;4.90;80.78;99765.53;4993551;28;20034;-85
2022/11/13 09:46:35;;;;;;;14.43;10.13;;;;;;;4.88;83.68;99783.44;5011138;28;20041;-85
2022/11/13 09:49:15;;;;;;;12.95;9.48;;;;;;;5.18;80.48;99769.88;5009795;28;20193;-85
2022/11/13 09:51:44;;;;;;;18.58;11.43;;;;;;;4.83;84.04;99768.13;5009892;28;20033;-84
2022/11/13 09:54:14;;;;;;;16.10;10.45;;;;;;;4.58;85.72;99743.06;5015751;28;20131;-84
2022/11/13 09:56:44;;;;;;;12.32;8.77;;;;;;;4.86;82.40;99737.84;5015185;28;20452;-84
2022/11/13 09:59:33;;;;;;;17.80;12.90;;;;;;;5.10;83.31;99755.94;4998157;28;20116;-85
2022/11/13 10:02:17;;;;;;;21.23;11.77;;;;;;;5.34;81.01;99750.25;5013747;28;20103;-85
2022/11/13 10:04:54;;;;;;;20.33;12.57;;;;;;;4.76;87.51;99748.72;4998887;28;20030;-85
2022/11/13 10:07:43;;;;;;;16.42;10.40;;;;;;;4.67;88.73;99744.59;5011695;28;20393;-85
2022/11/13 10:10:36;;;;;;;18.02;12.45;;;;;;;4.73;89.23;99748.28;5003025;28;20037;-84
2022/11/13 10:13:03;;;;;;;16.95;12.30;;;;;;;4.62;89.18;99730.28;5018581;28;20040;-85
2022/11/13 10:15:30;;;;;;;17.98;13.05;;;;;;;4.53;89.12;99713.72;5019402;28;20027;-84
2022/11/13 10:18:02;;;;;;;15.88;11.45;;;;;;;4.79;89.35;99735.13;5020049;28;20045;-84
2022/11/13 10:20:37;;;;;;;18.67;13.07;;;;;;;4.71;89.30;99721.22;5013287;28;20039;-83
2022/11/13 10:23:18;;;;;;;15.82;12.43;;;;;;;4.81;88.81;99711.94;5029490;28;20029;-84
2022/11/13 10:25:44;;;;;;;16.67;12.95;;;;;;;5.24;84.83;99723.31;5004667;28;20026;-84
2022/11/13 10:28:17;;;;;;;11.55;8.32;;;;;;;5.09;84.00;99696.09;5026841;28;20172;-84
2022/11/13 10:30:44;;;;;;;15.43;11.80;;;;;;;5.21;85.59;99711.28;5008277;28;20088;-84
2022/11/13 10:33:16;;;;;;;18.00;10.48;;;;;;;5.56;83.53;99716.56;5033395;28;20025;-84
2022/11/13 10:36:03;;;;;;;18.15;13.10;;;;;;;5.24;86.55;99724.09;5012410;28;20056;-85
2022/11/13 10:38:52;;;;;;;16.73;10.90;;;;;;;5.58;82.24;99704.78;5025367;28;20033;-84
2022/11/13 10:41:20;;;;;;;15.20;10.30;;;;;;;5.51;86.30;99703.91;5026326;28;20029;-85
2022/11/13 10:43:58;;;;;;;18.30;13.20;;;;;;;5.49;87.64;99687.41;5008707;28;20060;-85
2022/11/13 10:46:29;;;;;;;19.38;12.82;;;;;;;5.68;87.68;99702.59;5012974;28;20041;-84
2022/11/13 10:48:55;;;;;;;12.60;9.40;;;;;;;5.88;82.54;99676.22;5027912;28;20038;-85
2022/11/13 10:51:21;;;;;;;17.80;10.88;;;;;;;6.12;83.91;99691.59;4998075;28;20517;-85
2022/11/13 10:53:47;;;;;;;14.23;11.45;;;;;;;6.10;83.86;99677.72;5029075;28;20057;-86
2022/11/13 10:56:30;;;;;;;16.83;9.93;;;;;;;6.29;84.04;99676.97;5030302;28;20111;-85
2022/11/13 10:59:11;;;;;;;14.13;10.85;;;;;;;6.43;85.16;99669.84;5030640;28;20057;-85
2022/11/13 11:01:37;;;;;;;11.90;10.70;;;;;;;6.48;83.19;99654.16;5012219;28;20084;-85
2022/11/13 11:04:22;;;;;;;15.45;10.07;;;;;;;6.62;81.29;99655.78;5009675;28;20394;-85
2022/11/13 11:06:48;;;;;;;10.45;8.80;;;;;;;6.80;79.43;99659.50;5031092;28;20470;-85
2022/11/13 11:09:17;;;;;;;10.07;7.63;;;;;;;6.84;78.89;99662.53;5010005;28;20083;-85
2022/11/13 11:14:55;;;;;;;11.23;8.05;;;;;;;7.10;78.51;99654.56;5030519;28;20483;-85
2022/11/13 11:17:26;;;;;;;13.40;8.23;;;;;;;7.00;78.45;99635.59;5025064;28;20339;-85
2022/11/13 11:20:04;;;;;;;7.32;6.57;;;;;;;7.05;78.45;99637.63;5020383;28;20184;-85
2022/11/13 11:22:36;;;;;;;11.10;8.13;;;;;;;6.98;80.06;99624.38;5027535;28;20095;-85
2022/11/13 11:25:36;;;;;;;9.18;7.05;;;;;;;7.27;78.89;99634.50;5030331;28;20040;-85
2022/11/13 11:28:43;;;;;;;12.48;9.48;;;;;;;7.28;79.78;99630.84;5007667;28;20052;-85
2022/11/13 11:31:25;;;;;;;12.48;8.50;;;;;;;7.34;79.78;99640.63;5012198;28;20065;-85
2022/11/13 11:34:01;;;;;;;10.48;7.15;;;;;;;7.36;79.03;99611.25;5007335;28;20029;-85
2022/11/13 11:36:35;;;;;;;10.05;6.40;;;;;;;7.57;78.73;99618.91;5025790;28;20036;-85
2022/11/13 11:39:12;;;;;;;7.75;6.63;;;;;;;7.68;78.89;99622.75;5026160;28;20080;-85
2022/11/13 11:42:08;;;;;;;11.48;7.63;;;;;;;7.71;78.23;99603.75;5019354;28;20043;-86
2022/11/13 11:44:41;;;;;;;8.85;6.60;;;;;;;7.91;77.10;99612.41;5021958;28;20021;-85